Time;durP1;ratioP1;P1;durP2;ratioP2;P2;SDS_P1;SDS_P2;PMS_P1;PMS_P2;Temp;Humidity;BMP_temperature;BMP_pressure;BME280_temperature;BME280_humidity;BME280_pressure;Samples;Min_cycle;Max_cycle;Signal;HPM_P1;HPM_P2
2023/10/02 00:02:08;;;;;;;17.30;7.90;;;;;16.30;101586.00;;;;5022644;28;20236;-69
2023/10/02 00:04:55;;;;;;;17.27;8.27;;;;;16.30;101591.00;;;;5022989;28;20713;-68
2023/10/02 00:07:45;;;;;;;17.10;7.47;;;;;16.30;101587.00;;;;5024252;28;20226;-69
2023/10/02 00:10:31;;;;;;;14.57;7.23;;;;;16.30;101597.00;;;;5013669;28;20884;-71
2023/10/02 00:13:18;;;;;;;18.27;8.10;;;;;16.30;101586.00;;;;5020952;28;20237;-67
2023/10/02 00:16:08;;;;;;;16.03;7.43;;;;;16.20;101591.00;;;;5021017;28;20230;-69
2023/10/02 00:18:55;;;;;;;17.13;7.33;;;;;16.20;101589.00;;;;5031718;28;20225;-71
2023/10/02 00:21:42;;;;;;;18.53;7.30;;;;;16.20;101586.00;;;;5034632;28;20229;-70
2023/10/02 00:24:31;;;;;;;16.97;8.07;;;;;16.20;101587.00;;;;5046350;28;20297;-71
2023/10/02 00:27:21;;;;;;;18.80;8.13;;;;;16.20;101586.00;;;;5032113;28;20234;-71
2023/10/02 00:30:13;;;;;;;17.93;7.80;;;;;16.20;101578.00;;;;5045707;28;20217;-69
2023/10/02 00:33:02;;;;;;;18.30;7.67;;;;;16.20;101578.00;;;;5048156;28;20257;-69
2023/10/02 00:35:52;;;;;;;18.97;7.70;;;;;16.10;101575.00;;;;5047441;28;20235;-72
2023/10/02 00:38:39;;;;;;;17.33;8.13;;;;;16.20;101575.00;;;;5047628;28;21025;-70
2023/10/02 00:41:27;;;;;;;18.30;8.07;;;;;16.10;101565.00;;;;5047125;28;20268;-69
2023/10/02 00:44:13;;;;;;;16.07;7.47;;;;;16.10;101568.00;;;;5023663;28;20983;-69
2023/10/02 00:47:00;;;;;;;13.20;6.93;;;;;16.10;101572.00;;;;5015079;28;20303;-70
2023/10/02 00:50:06;;;;;;;16.57;7.17;;;;;16.10;101578.00;;;;5018872;28;20225;-66
2023/10/02 00:52:58;;;;;;;19.33;6.63;;;;;16.10;101572.00;;;;5018553;28;20225;-69
2023/10/02 00:55:47;;;;;;;18.47;7.07;;;;;16.10;101572.00;;;;5020346;28;20968;-70
2023/10/02 00:58:34;;;;;;;15.93;7.23;;;;;16.10;101570.00;;;;5025365;28;20264;-70
2023/10/02 01:01:20;;;;;;;12.63;6.87;;;;;16.00;101574.00;;;;5021207;28;20233;-69
2023/10/02 01:04:10;;;;;;;16.53;7.50;;;;;16.00;101575.00;;;;5015765;28;20319;-69
2023/10/02 01:07:11;;;;;;;16.47;7.60;;;;;16.00;101564.00;;;;5024609;28;20244;-69
2023/10/02 01:10:08;;;;;;;15.00;7.23;;;;;16.00;101570.00;;;;5023144;28;20255;-69
2023/10/02 01:13:01;;;;;;;16.23;7.50;;;;;16.00;101561.00;;;;5018292;28;20229;-69
2023/10/02 01:15:48;;;;;;;12.77;6.53;;;;;16.00;101566.00;;;;5017061;28;20251;-69
2023/10/02 01:18:37;;;;;;;15.73;7.63;;;;;16.00;101557.00;;;;5020694;28;20345;-69
2023/10/02 01:21:24;;;;;;;18.10;7.40;;;;;16.00;101566.00;;;;5019342;28;20312;-69
2023/10/02 01:24:17;;;;;;;19.13;7.03;;;;;16.00;101561.00;;;;5017108;28;20221;-70
2023/10/02 01:27:03;;;;;;;13.67;7.00;;;;;16.00;101561.00;;;;5016954;28;20241;-67
2023/10/02 01:30:14;;;;;;;18.93;7.13;;;;;16.00;101559.00;;;;5020074;28;20229;-70
2023/10/02 01:33:14;;;;;;;19.47;7.40;;;;;16.00;101560.00;;;;5020821;28;20287;-69
2023/10/02 01:36:02;;;;;;;15.07;7.10;;;;;16.00;101560.00;;;;5016306;28;20233;-71
2023/10/02 01:38:48;;;;;;;14.93;7.07;;;;;16.00;101554.00;;;;5023701;28;20283;-68
2023/10/02 01:41:35;;;;;;;17.20;7.27;;;;;16.00;101548.00;;;;5015231;28;20242;-69
2023/10/02 01:44:24;;;;;;;16.93;7.57;;;;;16.00;101558.00;;;;5023659;28;20275;-68
2023/10/02 01:47:10;;;;;;;18.03;7.87;;;;;16.00;101548.00;;;;5013105;28;20310;-69
2023/10/02 01:50:00;;;;;;;17.13;7.37;;;;;16.00;101551.00;;;;5010930;28;20271;-68
2023/10/02 01:52:47;;;;;;;18.90;7.67;;;;;15.90;101551.00;;;;5016128;28;20225;-71
2023/10/02 01:55:37;;;;;;;22.70;8.30;;;;;15.90;101550.00;;;;5009719;28;20877;-68
2023/10/02 01:58:26;;;;;;;20.67;7.83;;;;;15.90;101548.00;;;;5015998;28;20631;-67
2023/10/02 02:01:13;;;;;;;17.63;7.93;;;;;15.90;101547.00;;;;5017175;28;20244;-70
2023/10/02 02:03:59;;;;;;;19.33;7.83;;;;;15.90;101554.00;;;;5013005;28;20228;-68
2023/10/02 02:06:52;;;;;;;16.07;7.47;;;;;15.90;101539.00;;;;5013633;28;20265;-67
2023/10/02 02:09:41;;;;;;;17.17;8.27;;;;;15.90;101539.00;;;;5010296;28;20419;-69
2023/10/02 02:12:44;;;;;;;16.80;8.17;;;;;15.90;101539.00;;;;5020388;28;20226;-69
2023/10/02 02:15:32;;;;;;;16.73;7.33;;;;;15.80;101538.00;;;;5024151;28;20280;-68
2023/10/02 02:18:20;;;;;;;17.93;7.93;;;;;15.80;101531.00;;;;5015579;28;20289;-69
2023/10/02 02:21:10;;;;;;;19.83;7.83;;;;;15.80;101536.00;;;;5025307;28;20357;-70
2023/10/02 02:24:07;;;;;;;17.63;7.57;;;;;15.80;101538.00;;;;5014254;28;20225;-70
2023/10/02 02:26:57;;;;;;;16.00;7.97;;;;;15.80;101545.00;;;;5024034;28;20225;-69
2023/10/02 02:29:44;;;;;;;16.87;8.13;;;;;15.80;101539.00;;;;5016622;28;20253;-70
2023/10/02 02:32:43;;;;;;;18.77;7.30;;;;;15.80;101543.00;;;;5024557;28;20236;-67
2023/10/02 02:35:30;;;;;;;16.30;8.13;;;;;15.80;101536.00;;;;5020786;28;20753;-68
2023/10/02 02:38:16;;;;;;;13.37;7.40;;;;;15.70;101543.00;;;;5015592;28;20899;-68
2023/10/02 02:41:09;;;;;;;17.90;7.93;;;;;15.70;101537.00;;;;5016480;28;22988;-68
2023/10/02 02:43:55;;;;;;;17.37;7.40;;;;;15.70;101539.00;;;;5022891;28;20225;-69
2023/10/02 02:46:53;;;;;;;20.90;7.23;;;;;15.70;101536.00;;;;5019569;28;20225;-69
2023/10/02 02:49:50;;;;;;;15.13;7.30;;;;;15.70;101540.00;;;;5023880;28;20232;-69
2023/10/02 02:52:37;;;;;;;16.53;7.60;;;;;15.70;101536.00;;;;5016933;28;20245;-67
2023/10/02 02:55:23;;;;;;;18.13;8.17;;;;;15.70;101546.00;;;;5019242;28;20717;-68
2023/10/02 02:58:10;;;;;;;17.50;7.77;;;;;15.70;101540.00;;;;5021025;28;20230;-71
2023/10/02 03:00:57;;;;;;;17.53;7.33;;;;;15.70;101537.00;;;;5023036;28;20287;-69
2023/10/02 03:03:45;;;;;;;20.20;7.60;;;;;15.70;101541.00;;;;5022218;28;20361;-70
2023/10/02 03:06:35;;;;;;;15.33;7.30;;;;;15.60;101530.00;;;;5021504;28;20332;-68
2023/10/02 03:09:23;;;;;;;13.53;7.17;;;;;15.60;101529.00;;;;5022804;28;20249;-70
2023/10/02 03:12:10;;;;;;;14.40;7.37;;;;;15.60;101532.00;;;;5024228;28;20229;-70
2023/10/02 03:14:57;;;;;;;13.90;7.10;;;;;15.60;101526.00;;;;5024671;28;20356;-67
2023/10/02 03:17:43;;;;;;;22.07;7.50;;;;;15.60;101529.00;;;;5024946;28;20236;-69
2023/10/02 03:20:29;;;;;;;13.60;7.10;;;;;15.60;101520.00;;;;5014777;28;20237;-68
2023/10/02 03:23:18;;;;;;;17.40;8.53;;;;;15.60;101521.00;;;;5017434;28;20959;-70
2023/10/02 03:26:07;;;;;;;15.17;6.93;;;;;15.60;101514.00;;;;5020961;28;20232;-71
2023/10/02 03:29:00;;;;;;;16.43;8.03;;;;;15.60;101509.00;;;;5019280;28;20308;-70
2023/10/02 03:31:50;;;;;;;16.97;7.80;;;;;15.60;101512.00;;;;5021619;28;20743;-70
2023/10/02 03:34:38;;;;;;;17.37;7.80;;;;;15.60;101503.00;;;;5019400;28;20240;-71
2023/10/02 03:37:24;;;;;;;17.73;7.57;;;;;15.60;101511.00;;;;5015215;28;20734;-68
2023/10/02 03:40:20;;;;;;;16.83;7.47;;;;;15.60;101508.00;;;;5015967;28;20309;-69
2023/10/02 03:43:18;;;;;;;14.43;7.50;;;;;15.60;101507.00;;;;5019036;28;20251;-69
2023/10/02 03:46:06;;;;;;;14.33;6.83;;;;;15.60;101503.00;;;;5016924;28;20269;-69
2023/10/02 03:48:58;;;;;;;18.40;7.77;;;;;15.50;101497.00;;;;5018991;28;20229;-69
2023/10/02 03:51:45;;;;;;;18.23;8.10;;;;;15.50;101494.00;;;;5019131;28;20615;-69
2023/10/02 03:54:33;;;;;;;16.67;7.33;;;;;15.50;101489.00;;;;5022739;28;20364;-69
2023/10/02 04:00:23;;;;;;;17.17;7.50;;;;;15.50;101497.00;;;;5014988;28;20233;-68
2023/10/02 04:03:10;;;;;;;16.67;7.70;;;;;15.50;101496.00;;;;5016466;28;20225;-71
2023/10/02 04:05:56;;;;;;;15.77;8.07;;;;;15.50;101488.00;;;;5021596;28;20229;-68
2023/10/02 04:08:42;;;;;;;15.73;7.17;;;;;15.50;101484.00;;;;5021184;28;20222;-68
2023/10/02 04:11:29;;;;;;;15.33;7.10;;;;;15.40;101484.00;;;;5013927;28;20300;-70
2023/10/02 04:14:31;;;;;;;15.40;7.03;;;;;15.40;101486.00;;;;5013980;28;20243;-70
2023/10/02 04:17:21;;;;;;;17.77;7.20;;;;;15.40;101478.00;;;;5017805;28;20605;-69
2023/10/02 04:20:26;;;;;;;19.37;7.83;;;;;15.40;101475.00;;;;5015522;28;20235;-70
2023/10/02 04:23:21;;;;;;;17.47;8.10;;;;;15.40;101475.00;;;;5016807;28;20758;-69
2023/10/02 04:26:19;;;;;;;15.73;7.33;;;;;15.40;101467.00;;;;5024873;28;20247;-70
2023/10/02 04:29:15;;;;;;;16.03;7.80;;;;;15.40;101476.00;;;;5018558;28;20608;-67
2023/10/02 04:32:13;;;;;;;17.77;7.67;;;;;15.40;101474.00;;;;5025824;28;20304;-70
2023/10/02 04:34:59;;;;;;;18.97;8.00;;;;;15.30;101478.00;;;;5025353;28;20239;-68
2023/10/02 04:37:48;;;;;;;16.80;7.63;;;;;15.30;101482.00;;;;5009363;28;20726;-69
2023/10/02 04:40:38;;;;;;;17.70;8.03;;;;;15.30;101476.00;;;;5020810;28;21587;-69
2023/10/02 04:43:25;;;;;;;16.37;7.70;;;;;15.30;101480.00;;;;5026769;28;20236;-68
2023/10/02 04:46:14;;;;;;;18.70;7.80;;;;;15.30;101485.00;;;;5011404;28;20234;-68
2023/10/02 04:49:02;;;;;;;16.07;7.47;;;;;15.30;101475.00;;;;5024711;28;20275;-69
2023/10/02 04:51:47;;;;;;;16.87;7.67;;;;;15.30;101475.00;;;;5023308;28;20882;-70
2023/10/02 04:54:35;;;;;;;16.27;7.30;;;;;15.30;101481.00;;;;5025403;28;20376;-69
2023/10/02 04:57:22;;;;;;;16.50;8.23;;;;;15.30;101484.00;;;;5010286;28;20231;-70
2023/10/02 05:00:24;;;;;;;17.20;7.73;;;;;15.30;101483.00;;;;5025790;28;20300;-69
2023/10/02 05:03:17;;;;;;;19.17;8.50;;;;;15.30;101478.00;;;;5025889;28;20608;-69
2023/10/02 05:06:06;;;;;;;15.87;7.70;;;;;15.30;101483.00;;;;5017498;28;20386;-69
2023/10/02 05:12:03;;;;;;;16.13;7.70;;;;;15.30;101487.00;;;;5024284;28;20228;-70
2023/10/02 05:14:52;;;;;;;15.67;7.27;;;;;15.20;101486.00;;;;5016328;28;20230;-69
2023/10/02 05:17:47;;;;;;;15.20;7.30;;;;;15.20;101476.00;;;;5020690;28;20619;-68
2023/10/02 05:20:38;;;;;;;20.07;7.67;;;;;15.20;101482.00;;;;5020792;28;20599;-69
2023/10/02 05:23:25;;;;;;;13.20;7.13;;;;;15.20;101475.00;;;;5018488;28;20268;-68
2023/10/02 05:26:29;;;;;;;16.30;6.93;;;;;15.20;101478.00;;;;5013723;28;20274;-69
2023/10/02 05:29:18;;;;;;;16.07;7.03;;;;;15.20;101464.00;;;;5022006;28;20908;-67
2023/10/02 05:32:19;;;;;;;13.90;7.23;;;;;15.20;101477.00;;;;5024461;28;20233;-70
2023/10/02 05:35:16;;;;;;;16.57;7.40;;;;;15.20;101483.00;;;;5020722;28;20277;-69
2023/10/02 05:38:02;;;;;;;14.30;7.43;;;;;15.20;101486.00;;;;5006834;28;20302;-69
2023/10/02 05:40:53;;;;;;;13.47;7.20;;;;;15.20;101491.00;;;;5023659;28;20237;-71
2023/10/02 05:43:55;;;;;;;14.43;7.93;;;;;15.20;101487.00;;;;5016506;28;20232;-69
2023/10/02 05:46:55;;;;;;;18.23;7.27;;;;;15.20;101494.00;;;;5016334;28;20269;-70
2023/10/02 05:49:47;;;;;;;16.57;7.40;;;;;15.30;101496.00;;;;5019302;28;20742;-70
2023/10/02 05:52:35;;;;;;;18.37;7.80;;;;;15.30;101496.00;;;;5023594;28;20254;-72
2023/10/02 05:55:21;;;;;;;15.03;7.90;;;;;15.30;101503.00;;;;5017970;28;20279;-71
2023/10/02 05:58:20;;;;;;;20.80;7.70;;;;;15.30;101503.00;;;;5018558;28;20275;-69
2023/10/02 06:01:18;;;;;;;17.53;8.03;;;;;15.30;101505.00;;;;5019827;28;20243;-69
2023/10/02 06:04:05;;;;;;;15.87;7.80;;;;;15.40;101501.00;;;;5024680;28;20224;-68
2023/10/02 06:07:01;;;;;;;17.93;7.50;;;;;15.40;101508.00;;;;5021571;28;20261;-70
2023/10/02 06:09:48;;;;;;;16.60;7.57;;;;;15.40;101497.00;;;;5017962;28;20356;-68
2023/10/02 06:12:34;;;;;;;20.73;7.97;;;;;15.40;101499.00;;;;5022346;28;20245;-71
2023/10/02 06:18:27;;;;;;;15.07;7.53;;;;;15.50;101494.00;;;;5017434;28;20248;-70
2023/10/02 06:21:14;;;;;;;18.30;7.67;;;;;15.50;101505.00;;;;5018082;28;20703;-70
2023/10/02 06:24:00;;;;;;;19.10;8.00;;;;;15.60;101496.00;;;;5019161;28;20229;-69
2023/10/02 06:26:57;;;;;;;13.80;6.87;;;;;15.60;101491.00;;;;5021101;28;20400;-71
2023/10/02 06:29:49;;;;;;;17.07;7.83;;;;;15.60;101499.00;;;;5012532;28;20736;-70
2023/10/02 06:32:52;;;;;;;19.40;7.13;;;;;15.70;101497.00;;;;5012230;28;20312;-70
2023/10/02 06:35:45;;;;;;;17.87;7.13;;;;;15.70;101500.00;;;;5017928;28;20318;-68
2023/10/02 06:38:31;;;;;;;16.60;7.57;;;;;15.80;101500.00;;;;5015917;28;20271;-67
2023/10/02 06:41:19;;;;;;;18.27;8.00;;;;;15.80;101502.00;;;;5015371;28;20607;-69
2023/10/02 06:44:14;;;;;;;18.60;8.23;;;;;15.90;101516.00;;;;5028238;28;20229;-69
2023/10/02 06:47:04;;;;;;;16.53;7.43;;;;;16.00;101517.00;;;;5025902;28;20304;-69
2023/10/02 06:49:53;;;;;;;19.23;7.73;;;;;16.00;101506.00;;;;5025700;28;20237;-70
2023/10/02 06:52:39;;;;;;;16.43;7.37;;;;;16.10;101506.00;;;;5020144;28;20429;-70
2023/10/02 06:55:26;;;;;;;17.60;8.10;;;;;16.10;101515.00;;;;5021249;28;20594;-68
2023/10/02 06:58:14;;;;;;;15.60;8.23;;;;;16.20;101511.00;;;;5013483;28;20717;-69
2023/10/02 07:01:03;;;;;;;16.50;8.10;;;;;16.30;101508.00;;;;5019930;28;20234;-71
2023/10/02 07:03:52;;;;;;;16.17;7.77;;;;;16.40;101513.00;;;;5021440;28;20229;-69
2023/10/02 07:06:40;;;;;;;20.13;8.13;;;;;16.40;101506.00;;;;5021916;28;20237;-70
2023/10/02 07:09:26;;;;;;;18.53;7.47;;;;;16.50;101515.00;;;;5028309;28;20233;-68
2023/10/02 07:12:15;;;;;;;21.63;8.00;;;;;16.50;101504.00;;;;5019336;28;20237;-70
2023/10/02 07:15:12;;;;;;;21.97;8.13;;;;;16.60;101502.00;;;;5020197;28;20297;-70
2023/10/02 07:18:01;;;;;;;17.40;8.00;;;;;16.70;101514.00;;;;5023136;28;20296;-75
2023/10/02 07:20:53;;;;;;;18.30;7.73;;;;;16.70;101502.00;;;;5029887;28;20326;-74
2023/10/02 07:23:43;;;;;;;16.83;7.93;;;;;16.80;101500.00;;;;5023445;28;20748;-71
2023/10/02 07:29:38;;;;;;;22.00;8.33;;;;;16.90;101517.00;;;;5020625;28;20233;-71
2023/10/02 07:32:26;;;;;;;18.90;7.23;;;;;16.90;101512.00;;;;5027368;28;20224;-71
2023/10/02 07:35:21;;;;;;;19.43;8.00;;;;;17.00;101522.00;;;;5015321;28;20416;-71
2023/10/02 07:38:09;;;;;;;15.13;7.97;;;;;17.10;101522.00;;;;5024314;28;21040;-67
2023/10/02 07:41:06;;;;;;;18.07;7.90;;;;;17.20;101519.00;;;;5020305;28;20720;-68
2023/10/02 07:43:53;;;;;;;17.07;7.57;;;;;17.20;101520.00;;;;5020893;28;20277;-73
2023/10/02 07:46:40;;;;;;;19.23;6.97;;;;;17.30;101524.00;;;;5025970;28;20225;-67
2023/10/02 07:49:27;;;;;;;21.10;7.37;;;;;17.40;101512.00;;;;5022620;28;21553;-73
2023/10/02 07:52:26;;;;;;;17.97;7.17;;;;;17.40;101516.00;;;;5023807;28;20380;-73
2023/10/02 07:55:13;;;;;;;18.50;7.30;;;;;17.50;101515.00;;;;5006915;28;20237;-71
2023/10/02 07:58:01;;;;;;;13.20;6.80;;;;;17.50;101520.00;;;;5017648;28;20315;-72
2023/10/02 08:00:49;;;;;;;17.10;7.67;;;;;17.70;101525.00;;;;5013494;28;20293;-71
2023/10/02 08:03:43;;;;;;;16.70;7.40;;;;;17.70;101512.00;;;;5008326;28;20307;-69
2023/10/02 08:06:36;;;;;;;18.13;7.70;;;;;17.90;101509.00;;;;5012989;28;20234;-71
2023/10/02 08:09:39;;;;;;;21.37;7.90;;;;;18.00;101505.00;;;;5008443;28;20233;-72
2023/10/02 08:12:34;;;;;;;15.10;7.40;;;;;18.10;101507.00;;;;4999212;28;20221;-71
2023/10/02 08:15:27;;;;;;;17.33;7.13;;;;;18.20;101509.00;;;;5010285;28;20234;-71
2023/10/02 08:18:17;;;;;;;20.03;7.57;;;;;18.40;101508.00;;;;5011057;28;20646;-72
2023/10/02 08:21:04;;;;;;;17.30;7.40;;;;;18.40;101495.00;;;;5022508;28;20237;-72
2023/10/02 08:23:52;;;;;;;20.40;7.13;;;;;18.40;101502.00;;;;5009343;28;20245;-73
2023/10/02 08:26:40;;;;;;;17.10;7.50;;;;;18.60;101489.00;;;;5007054;28;21019;-73
2023/10/02 08:29:27;;;;;;;16.37;7.40;;;;;18.70;101500.00;;;;5011976;28;20246;-72
2023/10/02 08:32:28;;;;;;;16.33;6.87;;;;;18.70;101506.00;;;;5008939;28;20250;-72
2023/10/02 08:35:16;;;;;;;18.00;7.20;;;;;18.80;101501.00;;;;5019892;28;20244;-71
2023/10/02 08:38:07;;;;;;;20.07;7.83;;;;;18.90;101498.00;;;;5022467;28;20616;-69
2023/10/02 08:40:58;;;;;;;15.07;7.30;;;;;19.10;101495.00;;;;5020806;28;20238;-73
2023/10/02 08:43:45;;;;;;;16.43;6.70;;;;;19.20;101490.00;;;;5015305;28;20711;-71
2023/10/02 08:46:31;;;;;;;18.83;7.73;;;;;19.30;101494.00;;;;5023574;28;20369;-72
2023/10/02 08:49:19;;;;;;;18.67;7.70;;;;;19.50;101497.00;;;;5013582;28;20281;-71
2023/10/02 08:52:08;;;;;;;19.47;8.03;;;;;19.60;101498.00;;;;5012286;28;20234;-71
2023/10/02 08:54:55;;;;;;;16.20;6.87;;;;;19.80;101498.00;;;;5023929;28;20247;-70
2023/10/02 08:57:51;;;;;;;18.80;7.87;;;;;19.90;101494.00;;;;5008223;28;20239;-70
2023/10/02 09:04:23;;;;;;;15.33;7.33;;;;;20.20;101484.00;;;;4997561;28;20617;-69
2023/10/02 09:07:44;;;;;;;18.77;8.00;;;;;20.30;101489.00;;;;5022471;28;20245;-72
2023/10/02 09:10:36;;;;;;;20.23;7.27;;;;;20.40;101494.00;;;;5018130;28;20248;-70
2023/10/02 09:13:24;;;;;;;18.13;7.93;;;;;20.60;101485.00;;;;5018904;28;20232;-70
2023/10/02 09:16:14;;;;;;;16.97;7.33;;;;;20.70;101490.00;;;;5016973;28;20237;-69
2023/10/02 09:19:08;;;;;;;17.00;7.60;;;;;20.70;101487.00;;;;5015220;28;20260;-70
2023/10/02 09:22:06;;;;;;;17.07;7.57;;;;;20.80;101492.00;;;;5015252;28;20237;-71
2023/10/02 09:25:10;;;;;;;21.67;8.90;;;;;20.90;101489.00;;;;5020380;28;20756;-67
2023/10/02 09:27:57;;;;;;;19.63;7.93;;;;;21.10;101487.00;;;;5014219;28;20249;-70
2023/10/02 09:30:45;;;;;;;20.47;7.40;;;;;21.20;101485.00;;;;5012474;28;20283;-70
2023/10/02 09:33:33;;;;;;;19.40;8.03;;;;;21.40;101477.00;;;;5025144;28;20229;-70
2023/10/02 09:36:48;;;;;;;16.03;7.00;;;;;21.60;101476.00;;;;5015061;28;20738;-72
2023/10/02 09:39:54;;;;;;;17.37;7.70;;;;;21.60;101476.00;;;;5024458;28;20229;-70
2023/10/02 09:42:45;;;;;;;22.43;8.30;;;;;21.80;101479.00;;;;5020960;28;20245;-72
2023/10/02 09:45:35;;;;;;;17.33;8.17;;;;;21.80;101467.00;;;;5022527;28;20307;-71
2023/10/02 09:49:01;;;;;;;18.87;7.97;;;;;22.00;101467.00;;;;5011696;28;20320;-70
2023/10/02 09:52:09;;;;;;;19.13;7.80;;;;;22.10;101453.00;;;;5018007;28;20268;-71
2023/10/02 09:55:04;;;;;;;17.73;7.60;;;;;22.20;101453.00;;;;5018062;28;20589;-70
2023/10/02 09:57:55;;;;;;;20.23;8.57;;;;;22.30;101461.00;;;;5018657;28;20237;-71
2023/10/02 10:01:22;;;;;;;20.73;8.67;;;;;22.30;101456.00;;;;5022530;28;20353;-70
2023/10/02 10:07:26;;;;;;;22.03;8.07;;;;;22.50;101449.00;;;;5020684;28;20233;-70
2023/10/02 10:10:27;;;;;;;20.37;8.03;;;;;22.70;101457.00;;;;5015373;28;20308;-70
2023/10/02 10:13:27;;;;;;;18.20;7.60;;;;;23.00;101460.00;;;;5014079;28;20226;-70
2023/10/02 10:16:34;;;;;;;18.93;7.63;;;;;23.30;101462.00;;;;5012860;28;20244;-70
2023/10/02 10:19:26;;;;;;;19.83;7.97;;;;;23.50;101460.00;;;;5021570;28;20648;-71
2023/10/02 10:22:35;;;;;;;19.17;7.67;;;;;23.70;101455.00;;;;5009891;28;20340;-70
2023/10/02 10:25:44;;;;;;;19.10;8.03;;;;;23.60;101449.00;;;;5006633;28;20229;-71
2023/10/02 10:28:33;;;;;;;20.13;8.03;;;;;23.50;101449.00;;;;5000939;28;20627;-70
2023/10/02 10:31:27;;;;;;;19.43;7.53;;;;;23.40;101451.00;;;;4989364;28;20246;-69
2023/10/02 10:35:11;;;;;;;18.60;8.17;;;;;23.40;101450.00;;;;4988250;28;20358;-70
2023/10/02 10:37:59;;;;;;;20.87;7.97;;;;;23.30;101445.00;;;;4987620;28;20238;-69
2023/10/02 10:40:44;;;;;;;18.07;8.23;;;;;23.40;101444.00;;;;4988660;28;20234;-72
2023/10/02 10:43:46;;;;;;;19.10;8.93;;;;;23.40;101445.00;;;;4985285;28;20446;-70
2023/10/02 10:46:32;;;;;;;21.37;8.80;;;;;23.50;101442.00;;;;4987249;28;20226;-72
2023/10/02 10:49:23;;;;;;;17.10;8.20;;;;;23.50;101445.00;;;;5003612;28;20241;-70
2023/10/02 10:52:34;;;;;;;20.30;8.03;;;;;23.50;101447.00;;;;5008307;28;20584;-70
2023/10/02 10:55:36;;;;;;;22.80;8.37;;;;;23.50;101444.00;;;;5009144;28;20230;-70
2023/10/02 10:58:31;;;;;;;18.13;7.83;;;;;23.50;101441.00;;;;5020514;28;20813;-70
2023/10/02 11:01:20;;;;;;;19.87;7.67;;;;;23.60;101441.00;;;;5011995;28;20338;-72
2023/10/02 11:04:07;;;;;;;18.97;8.23;;;;;23.50;101450.00;;;;5021509;28;20372;-70
2023/10/02 11:06:54;;;;;;;18.03;7.30;;;;;23.60;101453.00;;;;5017194;28;20358;-71
2023/10/02 11:09:41;;;;;;;19.60;7.87;;;;;23.60;101445.00;;;;5015528;28;20237;-70
2023/10/02 11:12:37;;;;;;;18.57;8.00;;;;;23.70;101451.00;;;;5021394;28;20228;-70
2023/10/02 11:18:28;;;;;;;17.23;8.03;;;;;23.60;101445.00;;;;5062975;28;20612;-70
2023/10/02 11:21:22;;;;;;;24.48;9.15;;;;;23.60;101443.00;;;;5017797;28;20774;-67
2023/10/02 11:24:20;;;;;;;20.63;8.20;;;;;23.70;101451.00;;;;5016549;28;20233;-71
2023/10/02 11:27:08;;;;;;;18.97;8.37;;;;;23.70;101447.00;;;;5018488;28;20357;-71
2023/10/02 11:30:02;;;;;;;24.13;8.43;;;;;23.60;101449.00;;;;5016406;28;20237;-70
2023/10/02 11:32:53;;;;;;;20.03;8.20;;;;;23.60;101455.00;;;;5034005;28;20229;-70
2023/10/02 11:35:46;;;;;;;19.63;8.25;;;;;23.70;101452.00;;;;5036459;28;20745;-71
2023/10/02 11:38:33;;;;;;;20.73;8.37;;;;;23.70;101456.00;;;;5017475;28;20229;-71
2023/10/02 11:41:19;;;;;;;19.07;7.83;;;;;23.70;101457.00;;;;5017670;28;20241;-71
2023/10/02 11:44:07;;;;;;;19.33;8.13;;;;;23.70;101450.00;;;;5016113;28;20269;-70
2023/10/02 11:46:54;;;;;;;19.03;8.47;;;;;23.60;101442.00;;;;5013395;28;21071;-70
2023/10/02 11:49:42;;;;;;;19.13;7.90;;;;;23.60;101452.00;;;;5010717;28;20298;-70
2023/10/02 11:52:30;;;;;;;16.48;8.18;;;;;23.70;101451.00;;;;5023864;28;20291;-71
2023/10/02 11:55:18;;;;;;;17.27;8.00;;;;;23.80;101448.00;;;;5020672;28;20233;-70
2023/10/02 11:58:04;;;;;;;20.50;8.00;;;;;23.90;101452.00;;;;5019361;28;20228;-69
2023/10/02 12:00:51;;;;;;;21.27;8.68;;;;;24.00;101439.00;;;;5017924;28;20616;-73
2023/10/02 12:03:39;;;;;;;20.07;8.23;;;;;24.00;101440.00;;;;5016440;28;20253;-67
2023/10/02 12:06:26;;;;;;;17.60;7.90;;;;;24.00;101435.00;;;;5032387;28;20798;-71
2023/10/02 12:09:17;;;;;;;22.73;8.37;;;;;24.10;101436.00;;;;5040026;28;20356;-68
2023/10/02 12:12:05;;;;;;;18.23;7.67;;;;;24.00;101429.00;;;;5030474;28;20250;-69
2023/10/02 12:14:51;;;;;;;19.30;8.37;;;;;24.10;101419.00;;;;5037945;28;20232;-69
2023/10/02 12:17:37;;;;;;;17.73;8.57;;;;;24.10;101413.00;;;;5040138;28;20334;-69
2023/10/02 12:20:24;;;;;;;21.97;8.40;;;;;24.10;101416.00;;;;5033621;28;20256;-71
2023/10/02 12:23:10;;;;;;;19.77;8.17;;;;;24.10;101406.00;;;;5034473;28;20305;-71
2023/10/02 12:25:59;;;;;;;18.10;7.97;;;;;24.10;101396.00;;;;5039966;28;20229;-71
2023/10/02 12:28:46;;;;;;;19.30;8.43;;;;;24.10;101396.00;;;;5024716;28;20233;-70
2023/10/02 12:31:36;;;;;;;19.93;9.03;;;;;24.10;101398.00;;;;5013172;28;20301;-68
2023/10/02 12:34:23;;;;;;;22.23;8.33;;;;;24.20;101386.00;;;;4999592;28;20242;-70
2023/10/02 12:37:09;;;;;;;20.63;8.43;;;;;24.20;101392.00;;;;5001595;28;20304;-70
2023/10/02 12:39:56;;;;;;;18.70;8.10;;;;;24.20;101384.00;;;;4998890;28;20234;-70
2023/10/02 12:42:43;;;;;;;20.13;8.60;;;;;24.20;101388.00;;;;5009266;28;20225;-70
2023/10/02 12:45:35;;;;;;;21.50;9.20;;;;;24.20;101380.00;;;;5013122;28;20822;-70
2023/10/02 12:48:21;;;;;;;18.17;8.27;;;;;24.20;101369.00;;;;5009971;28;20868;-71
2023/10/02 12:51:07;;;;;;;18.90;9.23;;;;;24.20;101368.00;;;;5006440;28;20241;-70
2023/10/02 12:53:54;;;;;;;20.70;8.70;;;;;24.30;101373.00;;;;5008254;28;20230;-71
2023/10/02 12:56:45;;;;;;;20.60;8.80;;;;;24.30;101370.00;;;;4999033;28;20225;-71
2023/10/02 12:59:32;;;;;;;19.50;8.77;;;;;24.40;101365.00;;;;5003889;28;20242;-70
2023/10/02 13:02:19;;;;;;;21.00;9.00;;;;;24.50;101361.00;;;;5003695;28;20234;-70
2023/10/02 13:05:09;;;;;;;18.17;8.50;;;;;24.60;101347.00;;;;5005273;28;20229;-71
2023/10/02 13:07:56;;;;;;;21.50;8.97;;;;;24.80;101349.00;;;;5003666;28;20234;-69
2023/10/02 13:10:43;;;;;;;18.20;9.00;;;;;24.90;101352.00;;;;5003060;28;20281;-68
2023/10/02 13:13:30;;;;;;;20.77;8.60;;;;;25.00;101352.00;;;;5004216;28;20324;-70
2023/10/02 13:16:19;;;;;;;19.77;8.87;;;;;24.90;101343.00;;;;5006485;28;20237;-70
2023/10/02 13:19:09;;;;;;;19.20;8.90;;;;;24.90;101350.00;;;;5006788;28;20365;-70
2023/10/02 13:21:55;;;;;;;20.33;8.82;;;;;24.90;101344.00;;;;5001362;28;20762;-69
2023/10/02 13:24:42;;;;;;;19.52;7.82;;;;;24.90;101339.00;;;;5005846;28;20234;-71
2023/10/02 13:27:29;;;;;;;17.95;9.05;;;;;25.00;101326.00;;;;5006401;28;20377;-71
2023/10/02 13:30:19;;;;;;;22.55;9.10;;;;;25.10;101342.00;;;;4997630;28;20320;-71
2023/10/02 13:33:07;;;;;;;18.23;8.23;;;;;25.20;101346.00;;;;5002974;28;20233;-70
2023/10/02 13:36:00;;;;;;;21.25;8.75;;;;;25.10;101343.00;;;;5008520;28;20428;-71
2023/10/02 13:38:47;;;;;;;19.00;8.63;;;;;25.20;101345.00;;;;4994882;28;20288;-71
2023/10/02 13:41:34;;;;;;;21.00;8.48;;;;;25.20;101342.00;;;;5003246;28;20605;-70
2023/10/02 13:44:22;;;;;;;19.95;8.65;;;;;25.10;101346.00;;;;5002820;28;20761;-70
2023/10/02 13:47:09;;;;;;;17.00;8.13;;;;;25.00;101334.00;;;;4993895;28;20288;-70
2023/10/02 13:50:13;;;;;;;18.05;8.27;;;;;24.90;101328.00;;;;5008160;28;20241;-71
2023/10/02 13:53:01;;;;;;;19.63;8.85;;;;;24.90;101326.00;;;;5025303;28;20779;-71
2023/10/02 13:55:47;;;;;;;18.02;8.65;;;;;24.90;101320.00;;;;5022386;28;20810;-68
2023/10/02 13:58:34;;;;;;;18.77;8.98;;;;;24.80;101317.00;;;;5025872;28;20753;-71
2023/10/02 14:01:24;;;;;;;19.20;8.73;;;;;24.80;101318.00;;;;5021692;28;20233;-70
2023/10/02 14:04:10;;;;;;;17.70;8.60;;;;;24.70;101310.00;;;;5026801;28;20283;-71
2023/10/02 14:06:57;;;;;;;17.92;8.50;;;;;24.60;101310.00;;;;5025670;28;20225;-69
2023/10/02 14:09:44;;;;;;;19.15;9.02;;;;;24.50;101306.00;;;;5028170;28;20704;-71
2023/10/02 14:12:31;;;;;;;19.55;8.27;;;;;24.50;101302.00;;;;5018098;28;20287;-69
2023/10/02 14:15:19;;;;;;;21.23;8.52;;;;;24.50;101306.00;;;;5018115;28;20237;-70
2023/10/02 14:18:06;;;;;;;21.35;8.80;;;;;24.40;101297.00;;;;5021497;28;20281;-68